MV Causeway Supplier — ZR2426 — position and weather

sailwx.info

Track history (hours):
 
Tides and Currents Weather Stations Pressure Air Temp Water Temp Dewpoint Dewpoint Depression Visibility Wind Speed Wind Dir Waves Ship Positions

MV Causeway Supplier

Last reported at 2014-Sep-14 11:33 UTC. Time now 2014-Sep-15 09:33 UTC.
Position S 29°53' E 031°00'.

Length 22 m; draft 2.7 m.

Type: . MMSI: 601041200.

Date/timePositionNaut miles runAvg speedWind from/ knotsBaromVisibWave heightAir tempDewpointWater temp
2014-Sep-14 11:33S 29°53' E 031°00'8 8.0
2014-Sep-14 10:33S 29°47' E 031°06'1 0.9
2014-Sep-14 09:33S 29°48' E 031°05'8 7.2
2014-Sep-14 08:30S 29°54' E 031°00'0 0.2
2014-Sep-14 07:04S 29°54' E 031°00'0 0.0
2014-Sep-14 06:28S 29°54' E 031°00'0 0.0
2014-Sep-14 05:33S 29°54' E 031°00'  
2014-Sep-10 17:06S 29°54' E 031°00'3 4.5
2014-Sep-10 16:31S 29°53' E 031°03'5 4.8
2014-Sep-10 15:33S 29°53' E 031°08'5 4.6
2014-Sep-10 14:33S 29°53' E 031°03'2 1.8
2014-Sep-10 13:31S 29°52' E 031°01'2 1.9
2014-Sep-10 12:33S 29°54' E 031°00'0 0.2
2014-Sep-10 11:32S 29°54' E 031°00'0 0.0
2014-Sep-10 10:33S 29°54' E 031°00'0 0.0
2014-Sep-10 09:33S 29°54' E 031°00'0 0.0
2014-Sep-10 08:33S 29°54' E 031°00'0 0.0
2014-Sep-10 07:28S 29°54' E 031°00'0 0.0
2014-Sep-10 05:30S 29°54' E 031°00'0 0.0
2014-Sep-10 04:24S 29°54' E 031°00'2 0.1
2014-Sep-09 15:28S 29°52' E 031°01'7 7.4
2014-Sep-09 14:33S 29°55' E 031°08'2 1.7
2014-Sep-09 13:33S 29°53' E 031°09'2 1.7
2014-Sep-09 12:33S 29°52' E 031°08'7 7.1
2014-Sep-09 11:33S 29°53' E 031°00'1 1.1
2014-Sep-09 10:29S 29°54' E 031°00'0 0.0
2014-Sep-09 09:11S 29°54' E 031°00'0 0.0
2014-Sep-09 08:31S 29°54' E 031°00'0 0.0
2014-Sep-09 07:07S 29°54' E 031°00'0 0.0
2014-Sep-09 06:25S 29°54' E 031°00'0 0.0
2014-Sep-09 05:33S 29°54' E 031°00'0 0.0
2014-Sep-09 04:33S 29°54' E 031°00'0 0.0
2014-Sep-09 03:32S 29°54' E 031°00'0 0.0
2014-Sep-09 02:33S 29°54' E 031°00'0 0.0
2014-Sep-09 01:33S 29°54' E 031°00'0 0.0
2014-Sep-09 00:32S 29°54' E 031°00'0 0.0
2014-Sep-08 23:32S 29°54' E 031°00'0 0.0
2014-Sep-08 22:29S 29°54' E 031°00'0 0.0
2014-Sep-08 21:33S 29°54' E 031°00'0 0.0
2014-Sep-08 20:33S 29°54' E 031°00'0 0.0
2014-Sep-08 19:33S 29°54' E 031°00'0 0.0
2014-Sep-08 17:22S 29°54' E 031°00'0 0.0
2014-Sep-08 16:32S 29°54' E 031°00'0 0.0
2014-Sep-08 15:30S 29°54' E 031°00'0 0.0
2014-Sep-08 14:33S 29°54' E 031°00'0 0.0
2014-Sep-08 13:33S 29°54' E 031°00'0 0.0
2014-Sep-08 12:33S 29°54' E 031°00'0 0.0
2014-Sep-08 11:33S 29°54' E 031°00'0 0.0
2014-Sep-08 10:31S 29°54' E 031°00'0 0.0
2014-Sep-08 09:33S 29°54' E 031°00'0 0.0
2014-Sep-08 08:22S 29°54' E 031°00'0 0.0
2014-Sep-08 07:33S 29°54' E 031°00'2 0.1
2014-Sep-07 16:09S 29°52' E 031°01'5 8.1
2014-Sep-07 15:34S 29°51' E 031°06'1 0.7
2014-Sep-07 14:33S 29°52' E 031°07'6 6.0
2014-Sep-07 13:33S 29°54' E 031°00'0 0.3
2014-Sep-07 12:34S 29°54' E 031°00'5 1.7
2014-Sep-07 09:33S 29°52' E 031°06'5 1.7
2014-Sep-07 06:34S 29°54' E 031°00'0 0.0
2014-Sep-06 12:25S 29°54' E 031°00'0 0.0
2014-Sep-06 11:33S 29°54' E 031°00'3 0.1
2014-Sep-05 13:33S 29°52' E 031°03'2 1.9
2014-Sep-05 12:28S 29°52' E 031°01'2 2.3
2014-Sep-05 11:33S 29°54' E 031°00'0 0.0
2014-Sep-05 10:32S 29°54' E 031°00'0 0.0
2014-Sep-04 12:22S 29°54' E 031°00'  
Track history (hours):
 
Tides and Currents Weather Stations Pressure Air Temp Water Temp Dewpoint Dewpoint Depression Visibility Wind Speed Wind Dir Waves Ship Positions

MV Causeway Supplier

Last reported at 2014-Sep-14 11:33 UTC. Time now 2014-Sep-15 09:33 UTC.
Position S 29°53' E 031°00'.

Length 22 m; draft 2.7 m.

Type: . MMSI: 601041200.

Date/timePositionNaut miles runAvg speedWind from/ knotsBaromVisibWave heightAir tempDewpointWater temp
2014-Sep-14 11:33S 29°53' E 031°00'8 8.0
2014-Sep-14 10:33S 29°47' E 031°06'1 0.9
2014-Sep-14 09:33S 29°48' E 031°05'8 7.2
2014-Sep-14 08:30S 29°54' E 031°00'0 0.2
2014-Sep-14 07:04S 29°54' E 031°00'0 0.0
2014-Sep-14 06:28S 29°54' E 031°00'0 0.0
2014-Sep-14 05:33S 29°54' E 031°00'  
2014-Sep-10 17:06S 29°54' E 031°00'3 4.5
2014-Sep-10 16:31S 29°53' E 031°03'5 4.8
2014-Sep-10 15:33S 29°53' E 031°08'5 4.6
2014-Sep-10 14:33S 29°53' E 031°03'2 1.8
2014-Sep-10 13:31S 29°52' E 031°01'2 1.9
2014-Sep-10 12:33S 29°54' E 031°00'0 0.2
2014-Sep-10 11:32S 29°54' E 031°00'0 0.0
2014-Sep-10 10:33S 29°54' E 031°00'0 0.0
2014-Sep-10 09:33S 29°54' E 031°00'0 0.0
2014-Sep-10 08:33S 29°54' E 031°00'0 0.0
2014-Sep-10 07:28S 29°54' E 031°00'0 0.0
2014-Sep-10 05:30S 29°54' E 031°00'0 0.0
2014-Sep-10 04:24S 29°54' E 031°00'2 0.1
2014-Sep-09 15:28S 29°52' E 031°01'7 7.4
2014-Sep-09 14:33S 29°55' E 031°08'2 1.7
2014-Sep-09 13:33S 29°53' E 031°09'2 1.7
2014-Sep-09 12:33S 29°52' E 031°08'7 7.1
2014-Sep-09 11:33S 29°53' E 031°00'1 1.1
2014-Sep-09 10:29S 29°54' E 031°00'0 0.0
2014-Sep-09 09:11S 29°54' E 031°00'0 0.0
2014-Sep-09 08:31S 29°54' E 031°00'0 0.0
2014-Sep-09 07:07S 29°54' E 031°00'0 0.0
2014-Sep-09 06:25S 29°54' E 031°00'0 0.0
2014-Sep-09 05:33S 29°54' E 031°00'0 0.0
2014-Sep-09 04:33S 29°54' E 031°00'0 0.0
2014-Sep-09 03:32S 29°54' E 031°00'0 0.0
2014-Sep-09 02:33S 29°54' E 031°00'0 0.0
2014-Sep-09 01:33S 29°54' E 031°00'0 0.0
2014-Sep-09 00:32S 29°54' E 031°00'0 0.0
2014-Sep-08 23:32S 29°54' E 031°00'0 0.0
2014-Sep-08 22:29S 29°54' E 031°00'0 0.0
2014-Sep-08 21:33S 29°54' E 031°00'0 0.0
2014-Sep-08 20:33S 29°54' E 031°00'0 0.0
2014-Sep-08 19:33S 29°54' E 031°00'0 0.0
2014-Sep-08 17:22S 29°54' E 031°00'0 0.0
2014-Sep-08 16:32S 29°54' E 031°00'0 0.0
2014-Sep-08 15:30S 29°54' E 031°00'0 0.0
2014-Sep-08 14:33S 29°54' E 031°00'0 0.0
2014-Sep-08 13:33S 29°54' E 031°00'0 0.0
2014-Sep-08 12:33S 29°54' E 031°00'0 0.0
2014-Sep-08 11:33S 29°54' E 031°00'0 0.0
2014-Sep-08 10:31S 29°54' E 031°00'0 0.0
2014-Sep-08 09:33S 29°54' E 031°00'0 0.0
2014-Sep-08 08:22S 29°54' E 031°00'0 0.0
2014-Sep-08 07:33S 29°54' E 031°00'2 0.1
2014-Sep-07 16:09S 29°52' E 031°01'5 8.1
2014-Sep-07 15:34S 29°51' E 031°06'1 0.7
2014-Sep-07 14:33S 29°52' E 031°07'6 6.0
2014-Sep-07 13:33S 29°54' E 031°00'0 0.3
2014-Sep-07 12:34S 29°54' E 031°00'5 1.7
2014-Sep-07 09:33S 29°52' E 031°06'5 1.7
2014-Sep-07 06:34S 29°54' E 031°00'0 0.0
2014-Sep-06 12:25S 29°54' E 031°00'0 0.0
2014-Sep-06 11:33S 29°54' E 031°00'3 0.1
2014-Sep-05 13:33S 29°52' E 031°03'2 1.9
2014-Sep-05 12:28S 29°52' E 031°01'2 2.3
2014-Sep-05 11:33S 29°54' E 031°00'0 0.0
2014-Sep-05 10:32S 29°54' E 031°00'0 0.0
2014-Sep-04 12:22S 29°54' E 031°00'  

Dump ship's entire track history